• Join FlightAware (Why Join?)
  • Login
  • US Flag 
02:40PM EDT


 

Airport Tracker/Info


-or-


 

Live Flight TrackerFlight Track Log ✈ UAL3773 ✈ 10-Apr-2013 ✈ KIAD - KMCI

Flight Track Log - Related Links

Times and Time Zones

All times are in EDT time to prevent confusion due to time zone crossing. See the UAL3773 flight status page for this flight to view local times or setup timezone preferences in your user account.

Time Position Orientation Groundspeed Altitude Reporting Facility
EDT Latitude Longitude Course Direction KTS MPH feet Rate Location/Type
03:47PM 38.9500 -77.5500 287° West 204 235 2,100  Level Potomac TRACON
03:48PM 38.9333 -77.6333 256° West 251 289 4,100 2,040 Climbing Potomac TRACON
03:48PM 38.9056 -77.6831 234° Southwest 251 289 5,400 2,400 Climbing Washington Center
03:49PM 38.8667 -77.7644 238° Southwest 264 304 7,900 2,700 Climbing Washington Center
03:50PM 38.8319 -77.8356 238° Southwest 265 305 10,900 2,460 Climbing Washington Center
03:51PM 38.8367 -77.9236 274° West 276 318 12,900 1,800 Climbing Washington Center
03:52PM 38.8181 -78.0673 287° West  Level FlightAware Approximate
03:52PM 38.8431 -78.0250 275° West 276 318 14,500  Level Washington Center
03:53PM 38.8489 -78.1344 274° West 295 339 15,900 1,500 Climbing Washington Center
03:54PM 38.8528 -78.2519 272° West 326 375 17,500 1,500 Climbing Washington Center
03:55PM 38.8519 -78.3744 270° West 345 397 18,900 1,500 Climbing Washington Center
03:56PM 38.8511 -78.5053 270° West 353 406 20,500 1,380 Climbing Washington Center
03:57PM 38.8519 -78.6411 270° West 379 436 21,700 1,140 Climbing Washington Center
03:58PM 38.8525 -78.7797 270° West 384 442 22,800 1,140 Climbing Washington Center
03:59PM 38.8444 -78.9153 266° West 384 442 24,000 1,140 Climbing Washington Center
04:00PM 38.8431 -79.0406 269° West 384 442 25,100 1,140 Climbing Washington Center
04:01PM 38.8428 -79.1900 270° West 398 458 26,300 1,140 Climbing Washington Center
04:02PM 38.8406 -79.3336 269° West 406 467 27,400 960 Climbing Washington Center
04:03PM 38.8381 -79.4775 269° West 406 467 28,300 1,020 Climbing Washington Center
04:04PM 38.8350 -79.6372 269° West 406 467 29,500 1,020 Climbing Washington Center
04:05PM 38.8319 -79.7836 269° West 406 467 30,400 720 Climbing Washington Center
04:06PM 38.8247 -79.9272 266° West 406 467 31,000 540 Climbing Washington Center
04:07PM 38.8219 -80.0656 269° West 411 473 31,600 660 Climbing Washington Center
04:08PM 38.8169 -80.1706 267° West 426 490 32,100 780 Climbing Indianapolis Center
04:09PM 38.8144 -80.3233 269° West 428 493 33,000 900 Climbing Indianapolis Center
04:10PM 38.8111 -80.4722 268° West 420 483 34,000 480 Climbing Indianapolis Center
04:11PM 38.8056 -80.6239 267° West 423 487 34,000  Level Indianapolis Center
04:12PM 38.7997 -80.7814 267° West 441 507 34,000  Level Indianapolis Center
04:13PM 38.7958 -80.9417 268° West 449 517 34,000  Level Indianapolis Center
04:14PM 38.7889 -81.1361 267° West 454 522 34,000  Level Indianapolis Center
04:15PM 38.7833 -81.2989 268° West 458 527 34,000  Level Indianapolis Center
04:16PM 38.7764 -81.4719 267° West 458 527 34,000  Level Indianapolis Center
04:17PM 38.7708 -81.6375 268° West 465 535 34,000  Level Indianapolis Center
04:18PM 38.7636 -81.8117 267° West 461 531 34,000  Level Indianapolis Center
04:19PM 38.7567 -81.9750 267° West 461 531 34,000  Level Indianapolis Center
04:20PM 38.7506 -82.1389 267° West 462 532 34,000  Level Indianapolis Center
04:21PM 38.7450 -82.3025 268° West 462 532 34,000  Level Indianapolis Center
04:23PM 38.7381 -82.4664 267° West 462 532 34,000  Level Indianapolis Center
04:24PM 38.7306 -82.6311 267° West 464 534 34,000  Level Indianapolis Center
04:25PM 38.7228 -82.8303 267° West 466 536 34,000  Level Indianapolis Center
04:26PM 38.7156 -82.9944 267° West 464 534 34,000  Level Indianapolis Center
04:27PM 38.7078 -83.1539 266° West 466 536 34,000  Level Indianapolis Center
04:28PM 38.7003 -83.3197 267° West 462 532 34,000  Level Indianapolis Center
04:29PM 38.6917 -83.4883 266° West 468 539 34,000  Level Indianapolis Center
04:30PM 38.6839 -83.6550 267° West 465 535 34,000  Level Indianapolis Center
04:31PM 38.6736 -83.8492 266° West 464 534 34,000  Level Indianapolis Center
04:32PM 38.6650 -84.0183 266° West 469 540 34,000  Level Indianapolis Center
04:33PM 38.6564 -84.1839 266° West 464 534 34,000  Level Indianapolis Center
04:34PM 38.6511 -84.3503 268° West 465 535 34,000  Level Indianapolis Center
04:35PM 38.6617 -84.5186 275° West 469 540 34,000  Level Indianapolis Center
04:36PM 38.6708 -84.6844 274° West 462 532 34,000  Level Indianapolis Center
04:37PM 38.6811 -84.8486 275° West 463 533 34,000  Level Indianapolis Center
04:38PM 38.6889 -85.0078 274° West 463 533 34,000  Level Indianapolis Center
04:39PM 38.6992 -85.2025 274° West 457 526 34,000  Level Indianapolis Center
04:40PM 38.7083 -85.3664 274° West 460 529 34,000  Level Indianapolis Center
04:41PM 38.7167 -85.5286 274° West 458 527 34,000  Level Indianapolis Center
04:42PM 38.7236 -85.6922 273° West 460 529 34,000  Level Indianapolis Center
04:43PM 38.7328 -85.8553 274° West 459 528 34,000  Level Indianapolis Center
04:44PM 38.7408 -86.0208 274° West 466 536 34,000  Level Indianapolis Center
04:45PM 38.7494 -86.2175 273° West 462 532 34,000  Level Indianapolis Center
04:46PM 38.7572 -86.3836 273° West 465 535 34,000  Level Indianapolis Center
04:47PM 38.7633 -86.5486 273° West 464 534 34,000  Level Indianapolis Center
04:48PM 38.7717 -86.7144 274° West 468 539 34,000  Level Indianapolis Center
04:49PM 38.7775 -86.8814 273° West 470 541 34,000  Level Indianapolis Center
04:50PM 38.7842 -87.0475 273° West 470 541 34,000  Level Indianapolis Center
04:51PM 38.7917 -87.2478 273° West 471 542 34,000  Level Indianapolis Center
04:52PM 38.7969 -87.4136 272° West 470 541 34,000  Level Indianapolis Center
04:54PM 38.8025 -87.5792 273° West 467 537 34,000  Level Indianapolis Center
04:55PM 38.8081 -87.7447 273° West 467 537 34,000  Level Indianapolis Center
04:56PM 38.8125 -87.9100 272° West 465 535 34,000  Level Indianapolis Center
04:56PM 38.8136 -87.9761 271° West 462 532 34,000  Level Kansas City Center
04:57PM 38.8186 -88.1400 272° West 461 531 34,000  Level Kansas City Center
04:58PM 38.8222 -88.3064 272° West 464 534 34,000  Level Kansas City Center
04:59PM 38.8267 -88.4714 272° West 463 533 34,000  Level Kansas City Center
05:00PM 38.8297 -88.6522 271° West 461 531 34,000  Level Kansas City Center
05:01PM 38.8353 -88.8153 273° West 460 529 34,000  Level Kansas City Center
05:02PM 38.8386 -89.0008 271° West 454 522 34,000  Level Kansas City Center
05:03PM 38.8428 -89.1744 272° West 452 520 34,000  Level Kansas City Center
05:04PM 38.8467 -89.3353 272° West 452 520 34,000  Level Kansas City Center
05:05PM 38.8486 -89.4956 271° West 451 519 34,000  Level Kansas City Center
05:06PM 38.8375 -89.6572 265° West 448 516 34,000  Level Kansas City Center
05:07PM 38.8181 -89.8056 260° West 449 517 34,000  Level Kansas City Center
05:08PM 38.7972 -89.9622 260° West 448 516 34,000  Level Kansas City Center
05:09PM 38.7708 -90.1247 258° West 446 513 34,000  Level Kansas City Center
05:10PM 38.7228 -90.3072 251° West 449 517 34,000  Level Kansas City Center
05:11PM 38.6833 -90.4592 252° West 450 518 34,100  Climbing Kansas City Center
05:13PM 38.7097 -90.6297 281° West 481 554 34,000 -60 Descending Kansas City Center
05:14PM 38.7678 -90.7867 295° West 469 540 34,000  Level Kansas City Center
05:15PM 38.8436 -90.9283 305° West 479 551 34,000  Level Kansas City Center
05:16PM 38.9194 -91.0686 305° West 479 551 34,000  Level Kansas City Center
05:17PM 38.9944 -91.2100 304° West 480 552 34,000  Level Kansas City Center
05:18PM 39.0689 -91.3514 304° West 479 551 34,000  Level Kansas City Center
05:19PM 39.1431 -91.4931 304° West 477 549 34,000  Level Kansas City Center
05:20PM 39.2325 -91.6633 304° West 479 551 34,000  Level Kansas City Center
05:21PM 39.3056 -91.8053 304° West 479 551 34,000  Level Kansas City Center
05:22PM 39.3803 -91.9472 304° West 479 551 34,000  Level Kansas City Center
05:23PM 39.4531 -92.0894 304° West 478 550 34,000 -120 Level Kansas City Center
05:25PM 39.6122 -92.4003 304° West 472 543 33,800 -360 Descending Kansas City Center
05:26PM 39.6508 -92.5572 288° West 461 531 33,000 -960 Descending Kansas City Center
05:27PM 39.6511 -92.7122 270° West 438 504 31,800 -1,560 Descending Kansas City Center
05:28PM 39.6489 -92.8700 269° West 435 501 29,800 -1,980 Descending Kansas City Center
05:29PM 39.6464 -93.0292 269° West 440 506 27,800 -1,920 Descending Kansas City Center
05:30PM 39.6436 -93.1797 269° West 428 493 25,800 -1,860 Descending Kansas City Center
05:31PM 39.6411 -93.3592 269° West 418 481 24,000 -900 Descending Kansas City Center
05:32PM 39.6381 -93.5067 269° West 414 476 24,000  Level Kansas City Center
05:33PM 39.6347 -93.6586 268° West 419 482 24,000 -840 Level Kansas City Center
05:34PM 39.6333 -93.8122 269° West 421 484 22,400 -2,460 Descending Kansas City Center
05:35PM 39.5931 -93.9564 250° West 379 436 19,000 -3,000 Descending Kansas City Center
05:36PM 39.5389 -94.0583 235° Southwest 360 414 16,200 -2,640 Descending Kansas City Center
05:37PM 39.4814 -94.1697 236° Southwest 334 384 13,600 -2,220 Descending Kansas City Center
05:38PM 39.4311 -94.2675 236° Southwest 340 391 11,700 -1,800 Descending Kansas City Center
05:39PM 39.3719 -94.3844 237° Southwest 347 399 10,000 -840 Descending Kansas City Center
05:40PM 39.3225 -94.4806 236° Southwest 335 386 10,000 -360 Level Kansas City Center
05:41PM 39.2833 -94.5586 237° Southwest 270 311 9,300 -1,140 Descending Kansas City Center
05:42PM 39.2281 -94.6100 216° Southwest 229 264 7,700 -1,800 Descending Kansas City Center
05:44PM 39.1686 -94.6317 196° South 231 266 5,700 -1,320 Descending Kansas City Center
05:45PM 39.1011 -94.6578 197° South 227 261 5,000 -660 Descending Kansas City Center
05:46PM 39.1053 -94.7331 274° West 223 257 4,400 -720 Descending Kansas City Center
05:47PM 39.1664 -94.7442 352° North 219 252 3,600 -900 Descending Kansas City Center
05:48PM 39.2117 -94.7292 14° North 180 207 2,600 -900 Descending Kansas City Center
05:49PM 39.2494 -94.7181 13° North 126 145 1,800 -720 Descending Kansas City Center
05:50PM 39.2828 -94.7083 13° North 128 147 1,100 -720 Descending Kansas City Center